sensor_id;sensor_type;location;lat;lon;timestamp;P1;durP1;ratioP1;P2;durP2;ratioP2
16385;SDS011;8302;51.154;4.456;2022-12-05T00:01:12;5.35;;;2.97;;
16385;SDS011;8302;51.154;4.456;2022-12-05T00:03:40;9.80;;;3.97;;
16385;SDS011;8302;51.154;4.456;2022-12-05T00:06:08;11.25;;;4.72;;
16385;SDS011;8302;51.154;4.456;2022-12-05T00:08:36;2.15;;;1.95;;
16385;SDS011;8302;51.154;4.456;2022-12-05T00:11:09;9.73;;;4.45;;
16385;SDS011;8302;51.154;4.456;2022-12-05T00:13:37;3.22;;;1.63;;
16385;SDS011;8302;51.154;4.456;2022-12-05T00:16:07;5.53;;;2.65;;
16385;SDS011;8302;51.154;4.456;2022-12-05T00:18:37;8.13;;;4.45;;
16385;SDS011;8302;51.154;4.456;2022-12-05T00:21:05;6.90;;;4.15;;
16385;SDS011;8302;51.154;4.456;2022-12-05T00:23:33;4.38;;;2.45;;
16385;SDS011;8302;51.154;4.456;2022-12-05T00:26:01;4.18;;;1.70;;
16385;SDS011;8302;51.154;4.456;2022-12-05T00:28:29;6.63;;;2.88;;
16385;SDS011;8302;51.154;4.456;2022-12-05T00:31:00;4.67;;;3.70;;
16385;SDS011;8302;51.154;4.456;2022-12-05T00:33:28;9.90;;;3.35;;
16385;SDS011;8302;51.154;4.456;2022-12-05T00:36:01;5.88;;;2.63;;
16385;SDS011;8302;51.154;4.456;2022-12-05T00:38:29;7.35;;;4.05;;
16385;SDS011;8302;51.154;4.456;2022-12-05T00:41:00;4.43;;;2.63;;
16385;SDS011;8302;51.154;4.456;2022-12-05T00:43:28;4.85;;;2.75;;
16385;SDS011;8302;51.154;4.456;2022-12-05T00:45:59;4.55;;;3.40;;
16385;SDS011;8302;51.154;4.456;2022-12-05T00:48:27;2.88;;;1.77;;
16385;SDS011;8302;51.154;4.456;2022-12-05T00:51:03;8.40;;;3.75;;
16385;SDS011;8302;51.154;4.456;2022-12-05T00:53:31;4.75;;;3.50;;
16385;SDS011;8302;51.154;4.456;2022-12-05T00:56:00;6.68;;;2.83;;
16385;SDS011;8302;51.154;4.456;2022-12-05T00:58:28;4.20;;;2.40;;
16385;SDS011;8302;51.154;4.456;2022-12-05T01:00:56;9.27;;;4.28;;
16385;SDS011;8302;51.154;4.456;2022-12-05T01:03:24;6.30;;;3.38;;
16385;SDS011;8302;51.154;4.456;2022-12-05T01:05:52;5.30;;;3.10;;
16385;SDS011;8302;51.154;4.456;2022-12-05T01:08:22;6.30;;;3.15;;
16385;SDS011;8302;51.154;4.456;2022-12-05T01:10:53;8.27;;;3.15;;
16385;SDS011;8302;51.154;4.456;2022-12-05T01:13:22;8.40;;;3.42;;
16385;SDS011;8302;51.154;4.456;2022-12-05T01:15:50;6.38;;;4.03;;
16385;SDS011;8302;51.154;4.456;2022-12-05T01:18:18;4.32;;;2.58;;
16385;SDS011;8302;51.154;4.456;2022-12-05T01:20:46;2.38;;;1.48;;
16385;SDS011;8302;51.154;4.456;2022-12-05T01:23:15;5.03;;;2.50;;
16385;SDS011;8302;51.154;4.456;2022-12-05T01:25:45;7.35;;;4.03;;
16385;SDS011;8302;51.154;4.456;2022-12-05T01:28:14;6.25;;;3.10;;
16385;SDS011;8302;51.154;4.456;2022-12-05T01:30:43;2.05;;;1.83;;
16385;SDS011;8302;51.154;4.456;2022-12-05T01:33:11;3.03;;;2.10;;
16385;SDS011;8302;51.154;4.456;2022-12-05T01:35:40;2.50;;;2.30;;
16385;SDS011;8302;51.154;4.456;2022-12-05T01:38:09;5.38;;;2.20;;
16385;SDS011;8302;51.154;4.456;2022-12-05T01:40:37;3.22;;;1.75;;
16385;SDS011;8302;51.154;4.456;2022-12-05T01:43:08;6.35;;;2.28;;
16385;SDS011;8302;51.154;4.456;2022-12-05T01:45:38;4.45;;;2.85;;
16385;SDS011;8302;51.154;4.456;2022-12-05T01:48:06;3.85;;;2.30;;
16385;SDS011;8302;51.154;4.456;2022-12-05T01:50:37;8.02;;;3.42;;
16385;SDS011;8302;51.154;4.456;2022-12-05T01:53:05;3.53;;;1.92;;
16385;SDS011;8302;51.154;4.456;2022-12-05T01:55:33;5.05;;;2.50;;
16385;SDS011;8302;51.154;4.456;2022-12-05T01:58:02;4.32;;;2.65;;
16385;SDS011;8302;51.154;4.456;2022-12-05T02:00:33;3.30;;;2.33;;
16385;SDS011;8302;51.154;4.456;2022-12-05T02:03:01;11.35;;;5.18;;
16385;SDS011;8302;51.154;4.456;2022-12-05T02:05:31;11.35;;;3.42;;
16385;SDS011;8302;51.154;4.456;2022-12-05T02:08:00;2.08;;;1.75;;
16385;SDS011;8302;51.154;4.456;2022-12-05T02:10:29;3.00;;;2.28;;
16385;SDS011;8302;51.154;4.456;2022-12-05T02:13:03;5.50;;;3.20;;
16385;SDS011;8302;51.154;4.456;2022-12-05T02:15:38;5.72;;;3.97;;
16385;SDS011;8302;51.154;4.456;2022-12-05T02:18:12;8.52;;;2.85;;
16385;SDS011;8302;51.154;4.456;2022-12-05T02:20:45;3.33;;;2.90;;
16385;SDS011;8302;51.154;4.456;2022-12-05T02:26:14;8.85;;;2.78;;
16385;SDS011;8302;51.154;4.456;2022-12-05T02:28:46;5.50;;;3.17;;
16385;SDS011;8302;51.154;4.456;2022-12-05T02:31:21;5.15;;;3.08;;
16385;SDS011;8302;51.154;4.456;2022-12-05T02:33:55;7.03;;;3.55;;
16385;SDS011;8302;51.154;4.456;2022-12-05T02:36:29;6.05;;;3.33;;
16385;SDS011;8302;51.154;4.456;2022-12-05T02:38:59;9.63;;;5.05;;
16385;SDS011;8302;51.154;4.456;2022-12-05T02:41:30;4.75;;;3.10;;
16385;SDS011;8302;51.154;4.456;2022-12-05T02:44:01;5.38;;;3.38;;
16385;SDS011;8302;51.154;4.456;2022-12-05T02:46:31;10.68;;;4.80;;
16385;SDS011;8302;51.154;4.456;2022-12-05T02:49:02;4.57;;;2.95;;
16385;SDS011;8302;51.154;4.456;2022-12-05T02:51:32;4.28;;;2.17;;
16385;SDS011;8302;51.154;4.456;2022-12-05T02:54:02;4.38;;;1.63;;
16385;SDS011;8302;51.154;4.456;2022-12-05T02:56:31;9.32;;;4.47;;
16385;SDS011;8302;51.154;4.456;2022-12-05T02:59:00;8.45;;;3.08;;
16385;SDS011;8302;51.154;4.456;2022-12-05T03:01:29;4.30;;;3.15;;
16385;SDS011;8302;51.154;4.456;2022-12-05T03:04:00;7.88;;;4.22;;
16385;SDS011;8302;51.154;4.456;2022-12-05T03:06:30;4.15;;;3.25;;
16385;SDS011;8302;51.154;4.456;2022-12-05T03:08:59;29.10;;;14.68;;
16385;SDS011;8302;51.154;4.456;2022-12-05T03:11:28;3.53;;;2.97;;
16385;SDS011;8302;51.154;4.456;2022-12-05T03:13:58;2.97;;;2.10;;
16385;SDS011;8302;51.154;4.456;2022-12-05T03:16:28;8.43;;;2.95;;
16385;SDS011;8302;51.154;4.456;2022-12-05T03:18:58;2.95;;;2.03;;
16385;SDS011;8302;51.154;4.456;2022-12-05T03:21:32;3.40;;;2.00;;
16385;SDS011;8302;51.154;4.456;2022-12-05T03:24:02;2.83;;;2.15;;
16385;SDS011;8302;51.154;4.456;2022-12-05T03:26:43;3.38;;;2.67;;
16385;SDS011;8302;51.154;4.456;2022-12-05T03:29:18;3.53;;;2.30;;
16385;SDS011;8302;51.154;4.456;2022-12-05T03:31:51;11.27;;;3.65;;
16385;SDS011;8302;51.154;4.456;2022-12-05T03:34:21;3.45;;;2.00;;
16385;SDS011;8302;51.154;4.456;2022-12-05T03:36:53;2.92;;;2.15;;
16385;SDS011;8302;51.154;4.456;2022-12-05T03:39:22;6.13;;;1.88;;
16385;SDS011;8302;51.154;4.456;2022-12-05T03:41:52;3.72;;;2.45;;
16385;SDS011;8302;51.154;4.456;2022-12-05T03:44:22;5.10;;;2.50;;
16385;SDS011;8302;51.154;4.456;2022-12-05T03:46:52;1.95;;;1.73;;
16385;SDS011;8302;51.154;4.456;2022-12-05T03:49:22;7.13;;;3.78;;
16385;SDS011;8302;51.154;4.456;2022-12-05T03:52:02;7.97;;;2.97;;
16385;SDS011;8302;51.154;4.456;2022-12-05T03:54:33;3.40;;;2.40;;
16385;SDS011;8302;51.154;4.456;2022-12-05T03:57:02;2.05;;;1.77;;
16385;SDS011;8302;51.154;4.456;2022-12-05T03:59:33;4.85;;;2.65;;
16385;SDS011;8302;51.154;4.456;2022-12-05T04:02:03;6.65;;;3.53;;
16385;SDS011;8302;51.154;4.456;2022-12-05T04:04:33;3.25;;;2.05;;
16385;SDS011;8302;51.154;4.456;2022-12-05T04:07:05;5.75;;;2.60;;
16385;SDS011;8302;51.154;4.456;2022-12-05T04:09:34;5.63;;;3.22;;
16385;SDS011;8302;51.154;4.456;2022-12-05T04:12:05;5.45;;;3.38;;
16385;SDS011;8302;51.154;4.456;2022-12-05T04:14:36;2.03;;;1.70;;
16385;SDS011;8302;51.154;4.456;2022-12-05T04:17:05;7.35;;;3.58;;
16385;SDS011;8302;51.154;4.456;2022-12-05T04:19:36;6.10;;;3.08;;
16385;SDS011;8302;51.154;4.456;2022-12-05T04:22:25;4.60;;;2.03;;
16385;SDS011;8302;51.154;4.456;2022-12-05T04:24:54;6.03;;;2.92;;
16385;SDS011;8302;51.154;4.456;2022-12-05T04:27:41;3.40;;;2.33;;
16385;SDS011;8302;51.154;4.456;2022-12-05T04:30:13;3.67;;;2.53;;
16385;SDS011;8302;51.154;4.456;2022-12-05T04:32:44;5.00;;;2.58;;
16385;SDS011;8302;51.154;4.456;2022-12-05T04:35:13;8.57;;;3.47;;
16385;SDS011;8302;51.154;4.456;2022-12-05T04:37:43;2.97;;;2.33;;
16385;SDS011;8302;51.154;4.456;2022-12-05T04:40:13;4.03;;;1.42;;
16385;SDS011;8302;51.154;4.456;2022-12-05T04:42:44;7.97;;;2.15;;
16385;SDS011;8302;51.154;4.456;2022-12-05T04:45:14;4.68;;;2.50;;
16385;SDS011;8302;51.154;4.456;2022-12-05T04:47:44;4.22;;;3.10;;
16385;SDS011;8302;51.154;4.456;2022-12-05T04:50:15;5.20;;;2.80;;
16385;SDS011;8302;51.154;4.456;2022-12-05T04:52:45;2.97;;;1.88;;
16385;SDS011;8302;51.154;4.456;2022-12-05T04:55:14;3.63;;;2.53;;
16385;SDS011;8302;51.154;4.456;2022-12-05T04:57:44;9.73;;;3.78;;
16385;SDS011;8302;51.154;4.456;2022-12-05T05:00:16;5.68;;;2.20;;
16385;SDS011;8302;51.154;4.456;2022-12-05T05:02:46;3.30;;;2.63;;
16385;SDS011;8302;51.154;4.456;2022-12-05T05:05:15;2.72;;;2.33;;
16385;SDS011;8302;51.154;4.456;2022-12-05T05:07:46;4.80;;;2.40;;
16385;SDS011;8302;51.154;4.456;2022-12-05T05:10:15;7.18;;;3.83;;
16385;SDS011;8302;51.154;4.456;2022-12-05T05:12:45;4.40;;;2.72;;
16385;SDS011;8302;51.154;4.456;2022-12-05T05:15:13;2.95;;;2.35;;
16385;SDS011;8302;51.154;4.456;2022-12-05T05:17:41;10.48;;;4.55;;
16385;SDS011;8302;51.154;4.456;2022-12-05T05:20:09;3.42;;;1.88;;
16385;SDS011;8302;51.154;4.456;2022-12-05T05:22:54;6.30;;;3.13;;
16385;SDS011;8302;51.154;4.456;2022-12-05T05:25:23;3.72;;;2.15;;
16385;SDS011;8302;51.154;4.456;2022-12-05T05:27:52;6.70;;;3.47;;
16385;SDS011;8302;51.154;4.456;2022-12-05T05:30:20;8.57;;;2.20;;
16385;SDS011;8302;51.154;4.456;2022-12-05T05:32:49;2.72;;;2.10;;
16385;SDS011;8302;51.154;4.456;2022-12-05T05:35:17;2.58;;;1.40;;
16385;SDS011;8302;51.154;4.456;2022-12-05T05:37:45;7.13;;;3.10;;
16385;SDS011;8302;51.154;4.456;2022-12-05T05:40:15;4.13;;;2.47;;
16385;SDS011;8302;51.154;4.456;2022-12-05T05:42:43;5.28;;;3.50;;
16385;SDS011;8302;51.154;4.456;2022-12-05T05:45:11;5.07;;;2.47;;
16385;SDS011;8302;51.154;4.456;2022-12-05T05:47:39;6.45;;;3.85;;
16385;SDS011;8302;51.154;4.456;2022-12-05T05:50:08;2.90;;;1.73;;
16385;SDS011;8302;51.154;4.456;2022-12-05T05:52:43;9.23;;;3.40;;
16385;SDS011;8302;51.154;4.456;2022-12-05T05:55:11;4.00;;;1.75;;
16385;SDS011;8302;51.154;4.456;2022-12-05T05:57:40;4.47;;;2.83;;
16385;SDS011;8302;51.154;4.456;2022-12-05T06:00:08;9.77;;;3.00;;
16385;SDS011;8302;51.154;4.456;2022-12-05T06:02:36;11.07;;;3.45;;
16385;SDS011;8302;51.154;4.456;2022-12-05T06:05:07;3.80;;;2.60;;
16385;SDS011;8302;51.154;4.456;2022-12-05T06:07:35;4.55;;;2.05;;
16385;SDS011;8302;51.154;4.456;2022-12-05T06:10:06;4.00;;;2.58;;
16385;SDS011;8302;51.154;4.456;2022-12-05T06:12:34;9.10;;;4.38;;
16385;SDS011;8302;51.154;4.456;2022-12-05T06:15:04;8.13;;;3.38;;
16385;SDS011;8302;51.154;4.456;2022-12-05T06:17:32;9.27;;;2.65;;
16385;SDS011;8302;51.154;4.456;2022-12-05T06:20:00;5.47;;;1.95;;
16385;SDS011;8302;51.154;4.456;2022-12-05T06:22:28;9.15;;;3.63;;
16385;SDS011;8302;51.154;4.456;2022-12-05T06:24:56;3.85;;;3.00;;
16385;SDS011;8302;51.154;4.456;2022-12-05T06:27:24;7.10;;;4.35;;
16385;SDS011;8302;51.154;4.456;2022-12-05T06:29:52;7.60;;;2.85;;
16385;SDS011;8302;51.154;4.456;2022-12-05T06:32:21;3.15;;;2.83;;
16385;SDS011;8302;51.154;4.456;2022-12-05T06:34:49;20.55;;;10.15;;
16385;SDS011;8302;51.154;4.456;2022-12-05T06:37:17;24.15;;;11.75;;
16385;SDS011;8302;51.154;4.456;2022-12-05T06:39:45;19.08;;;10.63;;
16385;SDS011;8302;51.154;4.456;2022-12-05T06:42:13;22.08;;;10.82;;
16385;SDS011;8302;51.154;4.456;2022-12-05T06:44:41;19.50;;;10.68;;
16385;SDS011;8302;51.154;4.456;2022-12-05T06:47:09;22.00;;;10.95;;
16385;SDS011;8302;51.154;4.456;2022-12-05T06:49:38;22.98;;;11.35;;
16385;SDS011;8302;51.154;4.456;2022-12-05T06:52:06;20.55;;;11.05;;
16385;SDS011;8302;51.154;4.456;2022-12-05T06:54:34;21.77;;;10.95;;
16385;SDS011;8302;51.154;4.456;2022-12-05T06:57:02;21.38;;;11.20;;
16385;SDS011;8302;51.154;4.456;2022-12-05T06:59:30;18.80;;;10.88;;
16385;SDS011;8302;51.154;4.456;2022-12-05T07:01:58;22.05;;;11.98;;
16385;SDS011;8302;51.154;4.456;2022-12-05T07:04:26;20.50;;;11.43;;
16385;SDS011;8302;51.154;4.456;2022-12-05T07:06:55;17.83;;;10.95;;
16385;SDS011;8302;51.154;4.456;2022-12-05T07:09:24;20.77;;;11.80;;
16385;SDS011;8302;51.154;4.456;2022-12-05T07:12:12;18.58;;;11.77;;
16385;SDS011;8302;51.154;4.456;2022-12-05T07:14:40;20.38;;;11.38;;
16385;SDS011;8302;51.154;4.456;2022-12-05T07:17:14;21.30;;;11.23;;
16385;SDS011;8302;51.154;4.456;2022-12-05T07:19:42;19.20;;;11.18;;
16385;SDS011;8302;51.154;4.456;2022-12-05T07:22:11;21.92;;;10.65;;
16385;SDS011;8302;51.154;4.456;2022-12-05T07:24:41;20.90;;;11.30;;
16385;SDS011;8302;51.154;4.456;2022-12-05T07:27:09;20.52;;;10.93;;
16385;SDS011;8302;51.154;4.456;2022-12-05T07:29:37;19.13;;;11.10;;
16385;SDS011;8302;51.154;4.456;2022-12-05T07:32:05;19.23;;;10.65;;
16385;SDS011;8302;51.154;4.456;2022-12-05T07:34:33;20.33;;;11.20;;
16385;SDS011;8302;51.154;4.456;2022-12-05T07:37:01;21.65;;;11.73;;
16385;SDS011;8302;51.154;4.456;2022-12-05T07:39:30;19.80;;;10.80;;
16385;SDS011;8302;51.154;4.456;2022-12-05T07:41:58;19.88;;;11.00;;
16385;SDS011;8302;51.154;4.456;2022-12-05T07:44:26;17.55;;;10.95;;
16385;SDS011;8302;51.154;4.456;2022-12-05T07:46:54;19.48;;;10.73;;
16385;SDS011;8302;51.154;4.456;2022-12-05T07:49:21;18.52;;;11.45;;
16385;SDS011;8302;51.154;4.456;2022-12-05T07:51:49;20.60;;;10.57;;
16385;SDS011;8302;51.154;4.456;2022-12-05T07:54:18;19.58;;;10.95;;
16385;SDS011;8302;51.154;4.456;2022-12-05T07:56:47;17.65;;;10.95;;
16385;SDS011;8302;51.154;4.456;2022-12-05T07:59:15;23.02;;;11.55;;
16385;SDS011;8302;51.154;4.456;2022-12-05T08:01:43;20.20;;;10.55;;
16385;SDS011;8302;51.154;4.456;2022-12-05T08:04:11;17.63;;;10.32;;
16385;SDS011;8302;51.154;4.456;2022-12-05T08:06:41;16.23;;;10.43;;
16385;SDS011;8302;51.154;4.456;2022-12-05T08:09:09;13.48;;;10.15;;
16385;SDS011;8302;51.154;4.456;2022-12-05T08:11:37;18.88;;;10.70;;
16385;SDS011;8302;51.154;4.456;2022-12-05T08:14:06;18.95;;;10.25;;
16385;SDS011;8302;51.154;4.456;2022-12-05T08:16:34;18.35;;;10.30;;
16385;SDS011;8302;51.154;4.456;2022-12-05T08:19:03;17.75;;;11.02;;
16385;SDS011;8302;51.154;4.456;2022-12-05T08:21:31;15.85;;;10.35;;
16385;SDS011;8302;51.154;4.456;2022-12-05T08:24:00;16.15;;;10.82;;
16385;SDS011;8302;51.154;4.456;2022-12-05T08:26:28;19.08;;;10.43;;
16385;SDS011;8302;51.154;4.456;2022-12-05T08:28:58;16.27;;;10.65;;
16385;SDS011;8302;51.154;4.456;2022-12-05T08:31:28;16.70;;;10.07;;
16385;SDS011;8302;51.154;4.456;2022-12-05T08:33:56;10.55;;;4.22;;
16385;SDS011;8302;51.154;4.456;2022-12-05T08:36:25;7.65;;;3.65;;
16385;SDS011;8302;51.154;4.456;2022-12-05T08:38:54;3.33;;;2.95;;
16385;SDS011;8302;51.154;4.456;2022-12-05T08:41:22;9.32;;;4.10;;
16385;SDS011;8302;51.154;4.456;2022-12-05T08:43:54;4.18;;;2.63;;
16385;SDS011;8302;51.154;4.456;2022-12-05T08:46:22;3.75;;;3.17;;
16385;SDS011;8302;51.154;4.456;2022-12-05T08:48:51;6.53;;;3.80;;
16385;SDS011;8302;51.154;4.456;2022-12-05T08:51:19;8.20;;;2.78;;
16385;SDS011;8302;51.154;4.456;2022-12-05T08:53:47;2.53;;;1.98;;
16385;SDS011;8302;51.154;4.456;2022-12-05T08:56:15;11.77;;;3.97;;
16385;SDS011;8302;51.154;4.456;2022-12-05T08:58:51;5.55;;;2.80;;
16385;SDS011;8302;51.154;4.456;2022-12-05T09:01:26;5.18;;;3.13;;
16385;SDS011;8302;51.154;4.456;2022-12-05T09:03:59;6.18;;;2.47;;
16385;SDS011;8302;51.154;4.456;2022-12-05T09:06:27;4.72;;;2.60;;
16385;SDS011;8302;51.154;4.456;2022-12-05T09:08:57;4.45;;;2.83;;
16385;SDS011;8302;51.154;4.456;2022-12-05T09:11:26;4.03;;;2.67;;
16385;SDS011;8302;51.154;4.456;2022-12-05T09:13:55;8.80;;;3.97;;
16385;SDS011;8302;51.154;4.456;2022-12-05T09:16:24;11.43;;;3.00;;
16385;SDS011;8302;51.154;4.456;2022-12-05T09:19:03;4.68;;;2.60;;
16385;SDS011;8302;51.154;4.456;2022-12-05T09:21:31;1.75;;;1.65;;
16385;SDS011;8302;51.154;4.456;2022-12-05T09:23:59;4.50;;;2.45;;
16385;SDS011;8302;51.154;4.456;2022-12-05T09:26:28;6.60;;;3.00;;
16385;SDS011;8302;51.154;4.456;2022-12-05T09:28:56;3.22;;;2.42;;
16385;SDS011;8302;51.154;4.456;2022-12-05T09:31:25;8.52;;;2.60;;
16385;SDS011;8302;51.154;4.456;2022-12-05T09:33:53;3.83;;;2.33;;
16385;SDS011;8302;51.154;4.456;2022-12-05T09:36:23;8.18;;;2.53;;
16385;SDS011;8302;51.154;4.456;2022-12-05T09:38:52;7.97;;;3.97;;
16385;SDS011;8302;51.154;4.456;2022-12-05T09:41:25;5.38;;;1.77;;
16385;SDS011;8302;51.154;4.456;2022-12-05T09:44:11;3.00;;;2.38;;
16385;SDS011;8302;51.154;4.456;2022-12-05T09:46:42;9.18;;;3.60;;
16385;SDS011;8302;51.154;4.456;2022-12-05T09:49:16;6.95;;;4.40;;
16385;SDS011;8302;51.154;4.456;2022-12-05T09:51:45;5.60;;;2.25;;
16385;SDS011;8302;51.154;4.456;2022-12-05T09:54:20;2.58;;;1.98;;
16385;SDS011;8302;51.154;4.456;2022-12-05T09:56:50;3.17;;;1.73;;
16385;SDS011;8302;51.154;4.456;2022-12-05T09:59:19;4.03;;;2.45;;
16385;SDS011;8302;51.154;4.456;2022-12-05T10:01:49;3.90;;;2.58;;
16385;SDS011;8302;51.154;4.456;2022-12-05T10:04:45;10.00;;;2.97;;
16385;SDS011;8302;51.154;4.456;2022-12-05T10:07:24;3.50;;;2.20;;
16385;SDS011;8302;51.154;4.456;2022-12-05T10:09:57;5.93;;;3.17;;
16385;SDS011;8302;51.154;4.456;2022-12-05T10:12:40;8.38;;;2.83;;
16385;SDS011;8302;51.154;4.456;2022-12-05T10:15:10;7.15;;;2.97;;
16385;SDS011;8302;51.154;4.456;2022-12-05T10:17:40;3.92;;;2.72;;
16385;SDS011;8302;51.154;4.456;2022-12-05T10:20:10;4.10;;;3.38;;
16385;SDS011;8302;51.154;4.456;2022-12-05T10:22:42;4.40;;;2.67;;
16385;SDS011;8302;51.154;4.456;2022-12-05T10:25:11;10.88;;;3.70;;
16385;SDS011;8302;51.154;4.456;2022-12-05T10:27:41;4.95;;;2.03;;
16385;SDS011;8302;51.154;4.456;2022-12-05T10:30:12;2.67;;;2.42;;
16385;SDS011;8302;51.154;4.456;2022-12-05T10:32:41;4.57;;;2.97;;
16385;SDS011;8302;51.154;4.456;2022-12-05T10:35:14;7.97;;;3.97;;
16385;SDS011;8302;51.154;4.456;2022-12-05T10:37:45;5.72;;;3.42;;
16385;SDS011;8302;51.154;4.456;2022-12-05T10:40:14;9.15;;;4.65;;
16385;SDS011;8302;51.154;4.456;2022-12-05T10:42:42;7.47;;;4.20;;
16385;SDS011;8302;51.154;4.456;2022-12-05T10:45:15;6.13;;;4.10;;
16385;SDS011;8302;51.154;4.456;2022-12-05T10:47:43;4.25;;;2.72;;
16385;SDS011;8302;51.154;4.456;2022-12-05T10:52:59;4.90;;;3.35;;
16385;SDS011;8302;51.154;4.456;2022-12-05T10:55:29;3.22;;;1.80;;
16385;SDS011;8302;51.154;4.456;2022-12-05T10:58:07;6.85;;;2.65;;
16385;SDS011;8302;51.154;4.456;2022-12-05T11:00:43;5.85;;;3.08;;
16385;SDS011;8302;51.154;4.456;2022-12-05T11:03:26;6.50;;;3.80;;
16385;SDS011;8302;51.154;4.456;2022-12-05T11:05:55;5.75;;;3.10;;
16385;SDS011;8302;51.154;4.456;2022-12-05T11:08:25;6.18;;;3.13;;
16385;SDS011;8302;51.154;4.456;2022-12-05T11:11:17;9.32;;;3.88;;
16385;SDS011;8302;51.154;4.456;2022-12-05T11:13:50;4.70;;;3.17;;
16385;SDS011;8302;51.154;4.456;2022-12-05T11:16:20;8.10;;;3.67;;
16385;SDS011;8302;51.154;4.456;2022-12-05T11:18:49;5.90;;;3.65;;
16385;SDS011;8302;51.154;4.456;2022-12-05T11:21:18;5.30;;;3.80;;
16385;SDS011;8302;51.154;4.456;2022-12-05T11:23:47;6.05;;;3.35;;
16385;SDS011;8302;51.154;4.456;2022-12-05T11:26:17;8.38;;;4.38;;
16385;SDS011;8302;51.154;4.456;2022-12-05T11:28:47;8.98;;;4.65;;
16385;SDS011;8302;51.154;4.456;2022-12-05T11:31:20;6.72;;;3.72;;
16385;SDS011;8302;51.154;4.456;2022-12-05T11:33:58;4.75;;;3.33;;
16385;SDS011;8302;51.154;4.456;2022-12-05T11:36:30;6.05;;;2.92;;
16385;SDS011;8302;51.154;4.456;2022-12-05T11:39:03;7.95;;;3.53;;
16385;SDS011;8302;51.154;4.456;2022-12-05T11:41:38;7.43;;;2.72;;
16385;SDS011;8302;51.154;4.456;2022-12-05T11:44:11;2.30;;;1.88;;
16385;SDS011;8302;51.154;4.456;2022-12-05T11:46:45;3.17;;;2.08;;
16385;SDS011;8302;51.154;4.456;2022-12-05T11:49:23;3.65;;;2.70;;
16385;SDS011;8302;51.154;4.456;2022-12-05T11:52:00;5.18;;;3.15;;
16385;SDS011;8302;51.154;4.456;2022-12-05T12:00:22;7.05;;;2.85;;
16385;SDS011;8302;51.154;4.456;2022-12-05T12:03:00;22.17;;;13.43;;
16385;SDS011;8302;51.154;4.456;2022-12-05T12:05:32;3.13;;;2.58;;
16385;SDS011;8302;51.154;4.456;2022-12-05T12:08:06;4.30;;;3.10;;
16385;SDS011;8302;51.154;4.456;2022-12-05T12:10:39;3.85;;;2.83;;
16385;SDS011;8302;51.154;4.456;2022-12-05T12:13:15;5.40;;;3.17;;
16385;SDS011;8302;51.154;4.456;2022-12-05T12:15:49;11.80;;;2.85;;
16385;SDS011;8302;51.154;4.456;2022-12-05T12:18:23;5.40;;;3.13;;
16385;SDS011;8302;51.154;4.456;2022-12-05T12:20:55;7.18;;;4.43;;
16385;SDS011;8302;51.154;4.456;2022-12-05T12:23:29;8.57;;;3.90;;
16385;SDS011;8302;51.154;4.456;2022-12-05T12:26:03;6.28;;;4.00;;
16385;SDS011;8302;51.154;4.456;2022-12-05T12:28:36;7.75;;;3.42;;
16385;SDS011;8302;51.154;4.456;2022-12-05T12:31:09;6.95;;;3.47;;
16385;SDS011;8302;51.154;4.456;2022-12-05T12:33:42;9.80;;;4.05;;
16385;SDS011;8302;51.154;4.456;2022-12-05T12:36:15;7.13;;;3.38;;
16385;SDS011;8302;51.154;4.456;2022-12-05T12:38:48;5.75;;;3.10;;
16385;SDS011;8302;51.154;4.456;2022-12-05T12:41:22;6.93;;;3.80;;
16385;SDS011;8302;51.154;4.456;2022-12-05T12:44:00;4.50;;;3.13;;
16385;SDS011;8302;51.154;4.456;2022-12-05T12:46:38;8.02;;;4.43;;
16385;SDS011;8302;51.154;4.456;2022-12-05T12:49:12;4.80;;;3.70;;
16385;SDS011;8302;51.154;4.456;2022-12-05T12:51:43;7.05;;;3.75;;
16385;SDS011;8302;51.154;4.456;2022-12-05T12:54:17;5.15;;;4.25;;
16385;SDS011;8302;51.154;4.456;2022-12-05T12:57:11;4.65;;;4.13;;
16385;SDS011;8302;51.154;4.456;2022-12-05T12:59:51;7.03;;;3.83;;
16385;SDS011;8302;51.154;4.456;2022-12-05T13:02:23;8.13;;;3.50;;
16385;SDS011;8302;51.154;4.456;2022-12-05T13:04:52;8.65;;;4.00;;
16385;SDS011;8302;51.154;4.456;2022-12-05T13:07:23;7.05;;;4.05;;
16385;SDS011;8302;51.154;4.456;2022-12-05T13:09:54;10.32;;;4.63;;
16385;SDS011;8302;51.154;4.456;2022-12-05T13:12:25;9.18;;;4.25;;
16385;SDS011;8302;51.154;4.456;2022-12-05T13:14:54;7.32;;;3.63;;
16385;SDS011;8302;51.154;4.456;2022-12-05T13:17:27;8.15;;;4.85;;
16385;SDS011;8302;51.154;4.456;2022-12-05T13:19:56;5.78;;;3.92;;
16385;SDS011;8302;51.154;4.456;2022-12-05T13:22:24;8.13;;;4.43;;
16385;SDS011;8302;51.154;4.456;2022-12-05T13:24:53;6.60;;;4.13;;
16385;SDS011;8302;51.154;4.456;2022-12-05T13:27:23;7.88;;;4.55;;
16385;SDS011;8302;51.154;4.456;2022-12-05T13:29:53;6.72;;;4.10;;
16385;SDS011;8302;51.154;4.456;2022-12-05T13:32:24;4.72;;;3.40;;
16385;SDS011;8302;51.154;4.456;2022-12-05T13:34:54;4.82;;;3.58;;
16385;SDS011;8302;51.154;4.456;2022-12-05T13:37:23;5.85;;;3.10;;
16385;SDS011;8302;51.154;4.456;2022-12-05T13:40:26;6.60;;;3.85;;
16385;SDS011;8302;51.154;4.456;2022-12-05T13:43:12;6.85;;;3.90;;
16385;SDS011;8302;51.154;4.456;2022-12-05T13:45:41;8.00;;;4.25;;
16385;SDS011;8302;51.154;4.456;2022-12-05T13:48:17;5.25;;;3.45;;
16385;SDS011;8302;51.154;4.456;2022-12-05T13:50:50;5.72;;;3.47;;
16385;SDS011;8302;51.154;4.456;2022-12-05T13:53:27;8.30;;;4.00;;
16385;SDS011;8302;51.154;4.456;2022-12-05T13:55:57;7.72;;;4.50;;
16385;SDS011;8302;51.154;4.456;2022-12-05T13:58:35;10.10;;;4.57;;
16385;SDS011;8302;51.154;4.456;2022-12-05T14:03:55;8.40;;;3.67;;
16385;SDS011;8302;51.154;4.456;2022-12-05T14:09:25;7.95;;;3.80;;
16385;SDS011;8302;51.154;4.456;2022-12-05T14:17:20;4.93;;;3.50;;
16385;SDS011;8302;51.154;4.456;2022-12-05T14:19:51;6.05;;;3.83;;
16385;SDS011;8302;51.154;4.456;2022-12-05T14:22:24;5.93;;;2.97;;
16385;SDS011;8302;51.154;4.456;2022-12-05T14:24:59;6.40;;;3.47;;
16385;SDS011;8302;51.154;4.456;2022-12-05T14:27:36;6.85;;;3.63;;
16385;SDS011;8302;51.154;4.456;2022-12-05T14:30:16;5.53;;;3.40;;
16385;SDS011;8302;51.154;4.456;2022-12-05T14:32:47;9.65;;;4.40;;
16385;SDS011;8302;51.154;4.456;2022-12-05T14:35:16;6.20;;;3.05;;
16385;SDS011;8302;51.154;4.456;2022-12-05T14:37:49;3.85;;;3.28;;
16385;SDS011;8302;51.154;4.456;2022-12-05T14:40:23;7.55;;;3.65;;
16385;SDS011;8302;51.154;4.456;2022-12-05T14:42:53;6.65;;;4.05;;
16385;SDS011;8302;51.154;4.456;2022-12-05T14:45:23;5.47;;;3.70;;
16385;SDS011;8302;51.154;4.456;2022-12-05T14:47:54;7.05;;;3.88;;
16385;SDS011;8302;51.154;4.456;2022-12-05T14:50:36;4.45;;;2.95;;
16385;SDS011;8302;51.154;4.456;2022-12-05T14:55:53;6.32;;;4.07;;
16385;SDS011;8302;51.154;4.456;2022-12-05T14:58:28;7.10;;;3.50;;
16385;SDS011;8302;51.154;4.456;2022-12-05T15:00:58;6.57;;;3.50;;
16385;SDS011;8302;51.154;4.456;2022-12-05T15:03:28;4.50;;;3.03;;
16385;SDS011;8302;51.154;4.456;2022-12-05T15:05:57;6.72;;;3.22;;
16385;SDS011;8302;51.154;4.456;2022-12-05T15:08:30;5.85;;;3.60;;
16385;SDS011;8302;51.154;4.456;2022-12-05T15:11:01;4.35;;;3.00;;
16385;SDS011;8302;51.154;4.456;2022-12-05T15:13:29;5.30;;;2.97;;
16385;SDS011;8302;51.154;4.456;2022-12-05T15:15:59;4.57;;;3.20;;
16385;SDS011;8302;51.154;4.456;2022-12-05T15:18:29;4.15;;;3.42;;
16385;SDS011;8302;51.154;4.456;2022-12-05T15:20:58;5.75;;;3.38;;
16385;SDS011;8302;51.154;4.456;2022-12-05T15:23:37;7.55;;;3.50;;
16385;SDS011;8302;51.154;4.456;2022-12-05T15:26:13;4.88;;;3.20;;
16385;SDS011;8302;51.154;4.456;2022-12-05T15:29:03;7.00;;;3.75;;
16385;SDS011;8302;51.154;4.456;2022-12-05T15:31:32;4.18;;;2.92;;
16385;SDS011;8302;51.154;4.456;2022-12-05T15:34:02;3.00;;;2.33;;
16385;SDS011;8302;51.154;4.456;2022-12-05T15:36:33;5.13;;;3.13;;
16385;SDS011;8302;51.154;4.456;2022-12-05T15:39:03;3.35;;;2.45;;
16385;SDS011;8302;51.154;4.456;2022-12-05T15:41:32;4.18;;;3.20;;
16385;SDS011;8302;51.154;4.456;2022-12-05T15:44:00;5.95;;;3.20;;
16385;SDS011;8302;51.154;4.456;2022-12-05T15:46:31;4.78;;;2.90;;